createdAt,value
2023-05-12T00:01:33.940Z,12.20
2023-05-12T00:04:01.939Z,12.10
2023-05-12T00:06:29.869Z,11.90
2023-05-12T00:08:59.110Z,11.80
2023-05-12T00:11:27.046Z,11.80
2023-05-12T00:13:55.837Z,11.70
2023-05-12T00:16:23.808Z,11.70
2023-05-12T00:18:52.263Z,11.70
2023-05-12T00:21:20.253Z,11.60
2023-05-12T00:23:48.086Z,11.60
2023-05-12T00:26:17.506Z,11.60
2023-05-12T00:28:47.631Z,11.70
2023-05-12T00:31:15.685Z,11.60
2023-05-12T00:33:43.844Z,11.60
2023-05-12T00:36:11.684Z,11.60
2023-05-12T00:38:39.747Z,11.50
2023-05-12T00:41:07.635Z,11.50
2023-05-12T00:43:36.839Z,11.50
2023-05-12T00:46:07.162Z,11.50
2023-05-12T00:48:35.642Z,11.50
2023-05-12T00:51:06.122Z,11.50
2023-05-12T00:53:47.675Z,11.40
2023-05-12T00:56:18.546Z,11.40
2023-05-12T00:58:47.983Z,11.30
2023-05-12T01:01:15.908Z,11.30
2023-05-12T01:03:44.306Z,11.30
2023-05-12T01:06:16.448Z,11.40
2023-05-12T01:08:44.761Z,11.40
2023-05-12T01:11:12.616Z,11.40
2023-05-12T01:13:41.241Z,11.40
2023-05-12T01:16:13.083Z,11.40
2023-05-12T01:18:43.239Z,11.40
2023-05-12T01:21:11.559Z,11.50
2023-05-12T01:23:47.702Z,11.50
2023-05-12T01:26:17.054Z,11.50
2023-05-12T01:28:46.474Z,11.50
2023-05-12T01:31:15.583Z,11.60
2023-05-12T01:33:43.639Z,11.50
2023-05-12T01:36:11.519Z,11.60
2023-05-12T01:38:39.363Z,11.60
2023-05-12T01:41:07.198Z,11.50
2023-05-12T01:43:36.389Z,11.50
2023-05-12T01:46:04.254Z,11.60
2023-05-12T01:48:32.199Z,11.50
2023-05-12T01:51:01.397Z,11.50
2023-05-12T01:53:29.271Z,11.60
2023-05-12T01:55:57.098Z,11.60
2023-05-12T01:58:25.011Z,11.60
2023-05-12T02:00:54.226Z,11.60
2023-05-12T02:03:22.148Z,11.60
2023-05-12T02:05:50.027Z,11.70
2023-05-12T02:08:17.904Z,11.70
2023-05-12T02:10:45.728Z,11.70
2023-05-12T02:13:13.906Z,11.70
2023-05-12T02:15:41.797Z,11.80
2023-05-12T02:18:11.046Z,11.80
2023-05-12T02:20:38.903Z,11.80
2023-05-12T02:23:06.769Z,11.80
2023-05-12T02:25:34.604Z,11.90
2023-05-12T02:28:02.436Z,11.90
2023-05-12T02:30:30.258Z,11.90
2023-05-12T02:32:58.183Z,12.00
2023-05-12T02:35:27.373Z,12.00
2023-05-12T02:37:55.196Z,12.00
2023-05-12T02:40:23.058Z,12.00
2023-05-12T02:42:50.909Z,12.10
2023-05-12T02:45:19.128Z,12.00
2023-05-12T02:47:47.045Z,12.00
2023-05-12T02:50:14.938Z,12.00
2023-05-12T02:52:44.105Z,12.00
2023-05-12T02:55:11.941Z,14.00
2023-05-12T02:57:39.887Z,12.00
2023-05-12T03:00:08.774Z,12.10
2023-05-12T03:02:37.290Z,12.10
2023-05-12T03:05:06.011Z,12.00
2023-05-12T03:07:33.950Z,12.00
2023-05-12T03:10:03.606Z,12.00
2023-05-12T03:12:31.467Z,12.10
2023-05-12T03:14:59.313Z,12.10
2023-05-12T03:17:27.286Z,12.00
2023-05-12T03:19:55.224Z,12.10
2023-05-12T03:22:23.130Z,12.10
2023-05-12T03:24:51.795Z,12.00
2023-05-12T03:27:21.106Z,12.00
2023-05-12T03:29:48.956Z,12.00
2023-05-12T03:32:16.818Z,12.00
2023-05-12T03:34:44.726Z,11.90
2023-05-12T03:37:12.578Z,12.00
2023-05-12T03:39:40.477Z,11.90
2023-05-12T03:42:08.595Z,11.90
2023-05-12T03:44:37.828Z,11.90
2023-05-12T03:47:06.322Z,11.90
2023-05-12T03:49:34.212Z,11.90
2023-05-12T03:52:02.065Z,11.90
2023-05-12T03:54:30.612Z,11.90
2023-05-12T03:56:58.538Z,12.80
2023-05-12T03:59:26.427Z,11.90
2023-05-12T04:01:55.699Z,12.00
2023-05-12T04:04:23.746Z,12.00
2023-05-12T04:06:52.095Z,11.90
2023-05-12T04:09:21.267Z,11.90
2023-05-12T04:11:49.161Z,12.00
2023-05-12T04:14:17.017Z,12.80
2023-05-12T04:16:44.911Z,11.90
2023-05-12T04:19:14.166Z,11.90
2023-05-12T04:21:42.078Z,11.90
2023-05-12T04:24:11.151Z,12.00
2023-05-12T04:26:39.064Z,12.00
2023-05-12T04:29:06.939Z,12.00
2023-05-12T04:31:34.765Z,12.00
2023-05-12T04:34:02.616Z,12.00
2023-05-12T04:36:32.053Z,12.00
2023-05-12T04:39:00.058Z,12.00
2023-05-12T04:41:27.901Z,12.00
2023-05-12T04:46:26.873Z,12.10
2023-05-12T04:48:54.818Z,12.10
2023-05-12T04:51:22.645Z,12.10
2023-05-12T04:53:51.847Z,12.10
2023-05-12T04:56:19.711Z,12.10
2023-05-12T04:58:47.628Z,12.40
2023-05-12T05:01:16.002Z,12.20
2023-05-12T05:03:44.269Z,12.30
2023-05-12T05:06:12.400Z,12.30
2023-05-12T05:08:40.377Z,12.30
2023-05-12T05:11:09.667Z,12.90
2023-05-12T05:13:37.927Z,12.30
2023-05-12T05:16:06.618Z,12.40
2023-05-12T05:18:34.521Z,12.50
2023-05-12T05:21:02.775Z,12.50
2023-05-12T05:23:30.710Z,12.50
2023-05-12T05:25:58.557Z,12.50
2023-05-12T05:28:27.891Z,12.50
2023-05-12T05:30:55.849Z,12.60
2023-05-12T05:33:23.722Z,12.50
2023-05-12T05:35:52.148Z,12.50
2023-05-12T05:38:20.097Z,12.60
2023-05-12T05:40:53.879Z,12.70
2023-05-12T05:43:22.485Z,12.90
2023-05-12T05:45:52.037Z,14.40
2023-05-12T05:48:20.752Z,13.00
2023-05-12T05:50:48.887Z,13.10
2023-05-12T05:53:18.273Z,13.20
2023-05-12T05:55:46.338Z,13.30
2023-05-12T05:58:15.090Z,13.40
2023-05-12T06:00:43.411Z,13.40
2023-05-12T06:03:12.723Z,13.50
2023-05-12T06:05:42.086Z,13.60
2023-05-12T06:08:12.986Z,13.60
2023-05-12T06:10:41.059Z,13.70
2023-05-12T06:13:09.195Z,13.80
2023-05-12T06:15:37.148Z,13.90
2023-05-12T06:18:05.316Z,14.00
2023-05-12T06:20:34.741Z,14.00
2023-05-12T06:23:02.650Z,14.00
2023-05-12T06:25:30.522Z,14.10
2023-05-12T06:27:58.358Z,14.10
2023-05-12T06:30:26.864Z,15.00
2023-05-12T06:32:54.863Z,14.20
2023-05-12T06:35:22.810Z,14.40
2023-05-12T06:37:52.075Z,14.50
2023-05-12T06:40:20.065Z,14.60
2023-05-12T06:42:47.967Z,14.80
2023-05-12T06:45:15.941Z,14.70
2023-05-12T06:47:43.866Z,14.80
2023-05-12T06:50:12.206Z,15.00
2023-05-12T06:52:40.033Z,15.10
2023-05-12T06:55:10.097Z,15.20
2023-05-12T06:57:37.989Z,15.40
2023-05-12T07:00:07.647Z,15.40
2023-05-12T07:02:35.722Z,15.50
2023-05-12T07:05:03.603Z,15.90
2023-05-12T07:07:31.823Z,15.70
2023-05-12T07:09:59.697Z,15.90
2023-05-12T07:12:28.902Z,16.20
2023-05-12T07:14:56.752Z,16.10
2023-05-12T07:17:24.652Z,16.20
2023-05-12T07:19:52.715Z,16.20
2023-05-12T07:22:20.570Z,16.50
2023-05-12T07:24:48.616Z,16.40
2023-05-12T07:27:16.815Z,16.30
2023-05-12T07:29:46.071Z,16.50
2023-05-12T07:32:13.971Z,16.50
2023-05-12T07:34:41.858Z,17.10
2023-05-12T07:37:09.688Z,16.90
2023-05-12T07:39:37.570Z,17.00
2023-05-12T07:42:06.109Z,17.20
2023-05-12T07:44:34.169Z,17.20
2023-05-12T07:47:03.461Z,17.10
2023-05-12T07:49:31.343Z,17.00
2023-05-12T07:51:59.189Z,17.40
2023-05-12T07:54:27.088Z,17.30
2023-05-12T07:56:54.919Z,17.50
2023-05-12T07:59:22.765Z,17.60
2023-05-12T08:01:50.978Z,17.80
2023-05-12T08:04:20.412Z,17.90
2023-05-12T08:06:48.299Z,18.10
2023-05-12T08:09:16.188Z,18.20
2023-05-12T08:11:46.535Z,18.00
2023-05-12T08:14:15.701Z,18.10
2023-05-12T08:16:45.537Z,18.10
2023-05-12T08:19:13.793Z,18.10
2023-05-12T08:21:43.016Z,18.20
2023-05-12T08:24:10.901Z,18.30
2023-05-12T08:26:38.751Z,18.30
2023-05-12T08:29:08.477Z,18.30
2023-05-12T08:31:37.813Z,18.40
2023-05-12T08:36:36.592Z,18.60
2023-05-12T08:39:05.925Z,18.70
2023-05-12T08:41:44.878Z,18.70
2023-05-12T08:44:13.474Z,18.90
2023-05-12T08:46:42.909Z,19.00
2023-05-12T08:49:15.759Z,19.10
2023-05-12T08:51:49.883Z,19.10
2023-05-12T08:54:27.683Z,19.20
2023-05-12T08:59:26.788Z,19.20
2023-05-12T09:01:56.255Z,19.10
2023-05-12T09:04:24.262Z,19.00
2023-05-12T09:06:55.610Z,19.00
2023-05-12T09:09:28.189Z,19.20
2023-05-12T09:11:58.508Z,19.40
2023-05-12T09:14:27.244Z,19.60
2023-05-12T09:17:01.018Z,20.00
2023-05-12T09:19:29.484Z,19.80
2023-05-12T09:21:57.611Z,20.00
2023-05-12T09:24:36.377Z,20.30
2023-05-12T09:27:04.860Z,20.40
2023-05-12T09:29:39.450Z,20.50
2023-05-12T09:32:13.088Z,20.50
2023-05-12T09:34:41.597Z,20.40
2023-05-12T09:37:09.651Z,20.90
2023-05-12T09:39:38.836Z,21.30
2023-05-12T09:42:12.677Z,21.60
2023-05-12T09:44:42.228Z,22.10
2023-05-12T09:47:10.695Z,22.20
2023-05-12T09:49:38.674Z,22.60
2023-05-12T09:52:07.195Z,22.90
2023-05-12T09:54:35.513Z,23.10
2023-05-12T09:57:05.769Z,22.80
2023-05-12T09:59:36.114Z,22.70
2023-05-12T10:02:06.742Z,22.60
2023-05-12T10:04:45.361Z,22.80
2023-05-12T10:07:15.346Z,22.90
2023-05-12T10:09:45.092Z,22.90
2023-05-12T10:12:14.610Z,23.10
2023-05-12T10:14:43.685Z,23.10
2023-05-12T10:17:12.446Z,23.10
2023-05-12T10:19:42.105Z,23.10
2023-05-12T10:22:12.097Z,23.10
2023-05-12T10:24:41.776Z,23.00
2023-05-12T10:27:09.653Z,22.80
2023-05-12T10:29:39.788Z,22.60
2023-05-12T10:32:07.698Z,22.80
2023-05-12T10:34:37.057Z,22.90
2023-05-12T10:37:08.209Z,22.90
2023-05-12T10:39:36.932Z,23.10
2023-05-12T10:42:08.379Z,23.20
2023-05-12T10:44:38.032Z,23.40
2023-05-12T10:47:14.926Z,23.40
2023-05-12T10:49:43.312Z,23.60
2023-05-12T10:52:13.018Z,23.70
2023-05-12T10:54:44.320Z,23.70
2023-05-12T10:57:18.839Z,23.80
2023-05-12T10:59:53.169Z,23.80
2023-05-12T11:02:26.189Z,23.60
2023-05-12T11:04:58.960Z,23.80
2023-05-12T11:07:30.654Z,23.80
2023-05-12T11:10:01.734Z,23.90
2023-05-12T11:12:32.458Z,24.00
2023-05-12T11:15:03.814Z,24.10
2023-05-12T11:17:32.185Z,24.10
2023-05-12T11:20:00.703Z,24.20
2023-05-12T11:22:28.787Z,24.20
2023-05-12T11:24:56.813Z,24.10
2023-05-12T11:27:25.072Z,24.30
2023-05-12T11:29:59.913Z,24.20
2023-05-12T11:32:30.281Z,24.00
2023-05-12T11:35:10.374Z,24.10
2023-05-12T11:37:39.608Z,24.20
2023-05-12T11:40:15.581Z,24.30
2023-05-12T11:42:48.190Z,24.60
2023-05-12T11:45:23.744Z,24.60
2023-05-12T11:47:53.425Z,24.80
2023-05-12T11:50:23.409Z,25.20
2023-05-12T11:52:51.986Z,25.50
2023-05-12T11:55:25.403Z,25.60
2023-05-12T11:57:58.475Z,25.60
2023-05-12T12:00:34.018Z,25.60
2023-05-12T12:03:11.424Z,25.50
2023-05-12T12:05:40.127Z,25.50
2023-05-12T12:08:13.502Z,25.40
2023-05-12T12:10:45.058Z,25.50
2023-05-12T12:13:13.056Z,25.50
2023-05-12T12:15:40.970Z,25.30
2023-05-12T12:18:10.298Z,24.90
2023-05-12T12:20:38.235Z,24.60
2023-05-12T12:23:06.148Z,24.20
2023-05-12T12:25:34.004Z,24.20
2023-05-12T12:28:02.561Z,23.90
2023-05-12T12:30:30.495Z,24.00
2023-05-12T12:32:58.423Z,23.70
2023-05-12T12:35:27.799Z,23.60
2023-05-12T12:37:55.655Z,23.70
2023-05-12T12:40:23.586Z,23.70
2023-05-12T12:42:51.601Z,23.90
2023-05-12T12:45:20.590Z,24.10
2023-05-12T12:47:52.072Z,24.00
2023-05-12T12:50:20.689Z,24.20
2023-05-12T12:52:50.032Z,24.20
2023-05-12T12:55:18.162Z,24.10
2023-05-12T12:57:46.157Z,24.20
2023-05-12T13:00:15.103Z,24.10
2023-05-12T13:02:43.060Z,24.30
2023-05-12T13:05:11.476Z,24.30
2023-05-12T13:07:39.489Z,24.30
2023-05-12T13:10:10.014Z,24.20
2023-05-12T13:12:37.888Z,24.30
2023-05-12T13:15:07.243Z,24.00
2023-05-12T13:17:35.199Z,24.10
2023-05-12T13:20:03.964Z,24.30
2023-05-12T13:22:31.892Z,24.50
2023-05-12T13:24:59.812Z,24.60
2023-05-12T13:27:29.063Z,24.80
2023-05-12T13:29:56.933Z,24.80
2023-05-12T13:32:24.844Z,24.60
2023-05-12T13:34:52.739Z,24.50
2023-05-12T13:37:20.592Z,24.40
2023-05-12T13:39:48.533Z,24.30
2023-05-12T13:42:17.092Z,24.30
2023-05-12T13:44:46.376Z,24.10
2023-05-12T13:47:14.804Z,24.10
2023-05-12T13:49:42.670Z,23.90
2023-05-12T13:52:10.500Z,23.70
2023-05-12T13:54:38.397Z,23.40
2023-05-12T13:57:07.468Z,23.20
2023-05-12T13:59:35.330Z,23.20
2023-05-12T14:02:05.001Z,23.30
2023-05-12T14:04:33.011Z,23.50
2023-05-12T14:07:00.905Z,23.60
2023-05-12T14:09:28.754Z,23.80
2023-05-12T14:11:57.947Z,24.00
2023-05-12T14:14:25.903Z,24.40
2023-05-12T14:16:53.786Z,24.70
2023-05-12T14:19:23.035Z,24.50
2023-05-12T14:21:50.894Z,24.50
2023-05-12T14:24:18.760Z,24.20
2023-05-12T14:26:46.637Z,23.90
2023-05-12T14:29:14.630Z,23.90
2023-05-12T14:31:42.630Z,23.60
2023-05-12T14:34:11.769Z,23.40
2023-05-12T14:36:41.038Z,23.40
2023-05-12T14:39:09.342Z,23.40
2023-05-12T14:41:37.230Z,23.60
2023-05-12T14:44:05.430Z,23.50
2023-05-12T14:46:33.278Z,23.60
2023-05-12T14:49:01.854Z,23.70
2023-05-12T14:51:29.743Z,23.90
2023-05-12T14:53:58.973Z,24.10
2023-05-12T14:56:26.908Z,24.20
2023-05-12T14:58:54.755Z,24.40
2023-05-12T15:01:22.663Z,24.30
2023-05-12T15:03:50.563Z,24.30
2023-05-12T15:06:18.423Z,24.40
2023-05-12T15:08:46.299Z,24.30
2023-05-12T15:11:15.564Z,24.10
2023-05-12T15:13:43.465Z,23.80
2023-05-12T15:16:11.378Z,23.60
2023-05-12T15:18:39.253Z,23.40
2023-05-12T15:21:07.278Z,23.00
2023-05-12T15:23:35.246Z,22.80
2023-05-12T15:26:15.467Z,22.70
2023-05-12T15:28:56.251Z,22.80
2023-05-12T15:31:24.133Z,23.00
2023-05-12T15:33:51.981Z,23.10
2023-05-12T15:36:19.782Z,23.20
2023-05-12T15:38:48.122Z,23.40
2023-05-12T15:41:15.973Z,23.30
2023-05-12T15:43:43.803Z,23.60
2023-05-12T15:46:13.081Z,23.80
2023-05-12T15:48:41.007Z,23.90
2023-05-12T15:51:08.829Z,23.70
2023-05-12T15:53:36.798Z,23.40
2023-05-12T15:56:05.761Z,23.20
2023-05-12T15:58:33.606Z,22.70
2023-05-12T16:01:01.672Z,22.30
2023-05-12T16:03:31.109Z,22.10
2023-05-12T16:05:59.043Z,21.90
2023-05-12T16:08:26.993Z,21.60
2023-05-12T16:10:54.915Z,21.70
2023-05-12T16:13:22.766Z,21.70
2023-05-12T16:15:50.975Z,21.80
2023-05-12T16:18:19.362Z,21.90
2023-05-12T16:20:49.639Z,22.00
2023-05-12T16:23:17.921Z,22.20
2023-05-12T16:25:46.241Z,22.20
2023-05-12T16:28:14.525Z,22.30
2023-05-12T16:30:42.430Z,22.30
2023-05-12T16:33:10.323Z,22.40
2023-05-12T16:35:38.397Z,22.30
2023-05-12T16:38:07.663Z,22.20
2023-05-12T16:40:35.544Z,22.10
2023-05-12T16:43:03.429Z,21.90
2023-05-12T16:45:31.734Z,22.00
2023-05-12T16:47:59.759Z,21.80
2023-05-12T16:50:27.658Z,21.70
2023-05-12T16:52:55.585Z,21.60
2023-05-12T16:55:25.119Z,21.60
2023-05-12T16:57:52.975Z,21.60
2023-05-12T17:00:21.624Z,21.50
2023-05-12T17:02:49.855Z,21.40
2023-05-12T17:05:17.776Z,21.30
2023-05-12T17:07:45.935Z,21.30
2023-05-12T17:10:13.792Z,21.30
2023-05-12T17:12:42.995Z,21.30
2023-05-12T17:15:12.210Z,21.30
2023-05-12T17:17:40.079Z,21.20
2023-05-12T17:20:09.131Z,21.20
2023-05-12T17:22:41.402Z,21.10
2023-05-12T17:25:09.915Z,21.00
2023-05-12T17:27:37.831Z,20.90
2023-05-12T17:30:09.218Z,20.90
2023-05-12T17:32:37.315Z,20.80
2023-05-12T17:35:05.734Z,20.70
2023-05-12T17:37:33.887Z,20.60
2023-05-12T17:40:01.956Z,20.50
2023-05-12T17:42:31.337Z,20.40
2023-05-12T17:44:59.662Z,20.40
2023-05-12T17:47:29.016Z,20.30
2023-05-12T17:49:57.189Z,20.40
2023-05-12T17:52:25.075Z,20.10
2023-05-12T17:54:56.232Z,20.10
2023-05-12T17:57:24.103Z,20.10
2023-05-12T17:59:52.374Z,20.00
2023-05-12T18:02:20.339Z,20.00
2023-05-12T18:04:49.953Z,20.00
2023-05-12T18:07:18.006Z,19.70
2023-05-12T18:09:45.868Z,19.80
2023-05-12T18:12:14.004Z,19.60
2023-05-12T18:14:41.847Z,19.50
2023-05-12T18:17:09.762Z,19.50
2023-05-12T18:19:37.693Z,19.30
2023-05-12T18:22:07.197Z,19.20
2023-05-12T18:24:35.181Z,19.20
2023-05-12T18:27:05.229Z,19.10
2023-05-12T18:29:34.221Z,19.00
2023-05-12T18:32:02.179Z,18.90
2023-05-12T18:34:30.128Z,18.70
2023-05-12T18:36:58.005Z,18.60
2023-05-12T18:39:27.262Z,18.50
2023-05-12T18:41:55.595Z,18.30
2023-05-12T18:44:23.469Z,18.20
2023-05-12T18:46:51.362Z,18.60
2023-05-12T18:49:19.224Z,17.80
2023-05-12T18:51:47.103Z,17.60
2023-05-12T18:54:14.929Z,17.50
2023-05-12T18:56:44.199Z,17.40
2023-05-12T18:59:12.098Z,17.20
2023-05-12T19:01:40.089Z,17.10
2023-05-12T19:04:07.948Z,16.90
2023-05-12T19:06:35.880Z,16.80
2023-05-12T19:09:04.860Z,16.60
2023-05-12T19:11:32.742Z,16.50
2023-05-12T19:14:02.008Z,16.30
2023-05-12T19:16:31.051Z,16.00
2023-05-12T19:19:00.278Z,16.10
2023-05-12T19:21:29.397Z,16.60
2023-05-12T19:23:57.317Z,15.80
2023-05-12T19:26:26.667Z,15.70
2023-05-12T19:28:54.668Z,15.50
2023-05-12T19:31:23.993Z,15.40
2023-05-12T19:33:53.164Z,15.20
2023-05-12T19:36:21.213Z,15.80
2023-05-12T19:38:49.152Z,15.00
2023-05-12T19:41:17.037Z,14.90
2023-05-12T19:43:44.958Z,14.80
2023-05-12T19:46:12.972Z,14.70
2023-05-12T19:48:42.229Z,14.50
2023-05-12T19:51:10.104Z,14.50
2023-05-12T19:53:37.975Z,14.40
2023-05-12T19:56:05.986Z,14.30
2023-05-12T19:58:33.882Z,14.20
2023-05-12T20:01:01.731Z,14.30
2023-05-12T20:03:29.681Z,13.90
2023-05-12T20:05:59.303Z,13.90
2023-05-12T20:08:27.256Z,13.80
2023-05-12T20:10:55.274Z,13.70
2023-05-12T20:13:23.147Z,13.60
2023-05-12T20:15:51.009Z,14.00
2023-05-12T20:18:18.843Z,13.30
2023-05-12T20:20:46.700Z,13.20
2023-05-12T20:23:16.075Z,13.10
2023-05-12T20:25:44.166Z,13.00
2023-05-12T20:28:12.040Z,13.00
2023-05-12T20:30:40.000Z,12.90
2023-05-12T20:33:08.042Z,12.80
2023-05-12T20:35:35.979Z,12.70
2023-05-12T20:38:04.172Z,12.60
2023-05-12T20:40:33.401Z,12.60
2023-05-12T20:43:01.309Z,13.20
2023-05-12T20:45:29.197Z,12.40
2023-05-12T20:47:57.114Z,12.40
2023-05-12T20:50:25.199Z,12.40
2023-05-12T20:52:53.884Z,12.40
2023-05-12T20:55:22.076Z,12.40
2023-05-12T20:57:51.454Z,13.10
2023-05-12T21:00:19.729Z,12.50
2023-05-12T21:02:51.831Z,12.50
2023-05-12T21:05:20.656Z,12.50
2023-05-12T21:07:48.893Z,12.50
2023-05-12T21:10:16.782Z,12.50
2023-05-12T21:12:44.987Z,12.50
2023-05-12T21:15:16.062Z,12.10
2023-05-12T21:17:43.981Z,12.50
2023-05-12T21:20:13.250Z,12.40
2023-05-12T21:22:41.556Z,12.40
2023-05-12T21:25:10.134Z,12.00
2023-05-12T21:27:40.501Z,12.30
2023-05-12T21:30:09.713Z,11.50
2023-05-12T21:32:39.360Z,12.20
2023-05-12T21:35:08.337Z,12.20
2023-05-12T21:37:38.529Z,12.10
2023-05-12T21:40:07.680Z,12.00
2023-05-12T21:42:35.749Z,12.00
2023-05-12T21:45:03.698Z,11.90
2023-05-12T21:47:31.556Z,11.80
2023-05-12T21:50:00.773Z,11.20
2023-05-12T21:52:28.980Z,11.70
2023-05-12T21:54:56.825Z,11.60
2023-05-12T21:57:24.664Z,10.90
2023-05-12T21:59:52.596Z,11.40
2023-05-12T22:02:22.450Z,11.30
2023-05-12T22:04:50.321Z,10.90
2023-05-12T22:07:19.548Z,11.70
2023-05-12T22:09:47.362Z,11.00
2023-05-12T22:12:18.071Z,10.90
2023-05-12T22:14:46.218Z,11.30
2023-05-12T22:17:14.162Z,10.90
2023-05-12T22:19:42.193Z,10.80
2023-05-12T22:22:10.168Z,10.80
2023-05-12T22:24:39.406Z,10.80
2023-05-12T22:27:07.517Z,10.70
2023-05-12T22:29:35.423Z,10.70
2023-05-12T22:32:03.250Z,10.60
2023-05-12T22:34:31.097Z,10.40
2023-05-12T22:36:59.210Z,11.10
2023-05-12T22:39:27.072Z,9.90
2023-05-12T22:41:56.288Z,10.10
2023-05-12T22:44:24.166Z,9.10
2023-05-12T22:46:52.160Z,10.00
2023-05-12T22:49:20.047Z,10.00
2023-05-12T22:51:47.915Z,9.60
2023-05-12T22:54:15.840Z,10.10
2023-05-12T22:56:44.663Z,9.70
2023-05-12T22:59:14.022Z,10.40
2023-05-12T23:01:41.883Z,9.80
2023-05-12T23:04:09.792Z,9.70
2023-05-12T23:06:37.690Z,9.80
2023-05-12T23:09:05.660Z,11.40
2023-05-12T23:11:33.506Z,9.70
2023-05-12T23:14:01.429Z,9.70
2023-05-12T23:16:30.665Z,11.20
2023-05-12T23:18:58.707Z,9.50
2023-05-12T23:21:26.630Z,9.50
2023-05-12T23:23:54.497Z,9.60
2023-05-12T23:26:22.414Z,9.30
2023-05-12T23:28:50.262Z,9.20
2023-05-12T23:31:18.195Z,9.20
2023-05-12T23:33:47.440Z,11.50
2023-05-12T23:36:15.453Z,9.20
2023-05-12T23:38:43.640Z,9.00
2023-05-12T23:41:11.750Z,9.20
2023-05-12T23:43:39.693Z,9.20
2023-05-12T23:46:07.587Z,9.30
2023-05-12T23:48:37.227Z,9.10
2023-05-12T23:51:06.563Z,8.90
2023-05-12T23:53:34.488Z,9.10
2023-05-12T23:56:02.906Z,9.20
2023-05-12T23:58:30.800Z,9.00
